sensor_id;sensor_type;location;lat;lon;timestamp;pressure;altitude;pressure_sealevel;temperature;humidity
42003;BME280;27693;50.506;30.832;2023-12-20T00:00:13;99218.00;;;5.13;92.81
42003;BME280;27693;50.506;30.832;2023-12-20T00:01:15;99217.88;;;5.16;92.55
42003;BME280;27693;50.506;30.832;2023-12-20T00:02:18;99223.16;;;5.13;92.47
42003;BME280;27693;50.506;30.832;2023-12-20T00:03:21;99216.30;;;5.12;92.29
42003;BME280;27693;50.506;30.832;2023-12-20T00:04:23;99216.39;;;5.09;92.40
42003;BME280;27693;50.506;30.832;2023-12-20T00:05:26;99218.13;;;5.08;92.49
42003;BME280;27693;50.506;30.832;2023-12-20T00:06:29;99212.84;;;5.13;92.49
42003;BME280;27693;50.506;30.832;2023-12-20T00:07:32;99210.20;;;5.15;92.41
42003;BME280;27693;50.506;30.832;2023-12-20T00:08:34;99220.46;;;5.16;92.51
42003;BME280;27693;50.506;30.832;2023-12-20T00:09:37;99221.18;;;5.21;92.52
42003;BME280;27693;50.506;30.832;2023-12-20T00:10:40;99205.05;;;5.15;91.96
42003;BME280;27693;50.506;30.832;2023-12-20T00:11:42;99205.05;;;5.15;91.96
42003;BME280;27693;50.506;30.832;2023-12-20T00:12:44;99214.33;;;5.20;91.89
42003;BME280;27693;50.506;30.832;2023-12-20T00:13:47;99216.30;;;5.12;91.46
42003;BME280;27693;50.506;30.832;2023-12-20T00:14:51;99211.95;;;5.14;91.68
42003;BME280;27693;50.506;30.832;2023-12-20T00:15:53;99213.61;;;5.15;91.63
42003;BME280;27693;50.506;30.832;2023-12-20T00:16:56;99204.22;;;5.14;91.47
42003;BME280;27693;50.506;30.832;2023-12-20T00:17:59;99205.84;;;5.17;91.72
42003;BME280;27693;50.506;30.832;2023-12-20T00:19:01;99212.64;;;5.19;91.66
42003;BME280;27693;50.506;30.832;2023-12-20T00:20:04;99196.30;;;5.19;91.65
42003;BME280;27693;50.506;30.832;2023-12-20T00:21:08;99195.28;;;5.24;92.01
42003;BME280;27693;50.506;30.832;2023-12-20T00:22:10;99189.31;;;5.22;91.98
42003;BME280;27693;50.506;30.832;2023-12-20T00:23:12;99188.43;;;5.23;92.16
42003;BME280;27693;50.506;30.832;2023-12-20T00:24:15;99189.48;;;5.18;91.71
42003;BME280;27693;50.506;30.832;2023-12-20T00:25:18;99187.66;;;5.21;92.17
42003;BME280;27693;50.506;30.832;2023-12-20T00:26:20;99192.01;;;5.19;91.96
42003;BME280;27693;50.506;30.832;2023-12-20T00:27:23;99184.27;;;5.19;91.97
42003;BME280;27693;50.506;30.832;2023-12-20T00:28:25;99188.28;;;5.28;92.37
42003;BME280;27693;50.506;30.832;2023-12-20T00:29:28;99181.29;;;5.32;92.47
42003;BME280;27693;50.506;30.832;2023-12-20T00:30:30;99181.02;;;5.39;92.90
42003;BME280;27693;50.506;30.832;2023-12-20T00:31:32;99173.11;;;5.46;92.32
42003;BME280;27693;50.506;30.832;2023-12-20T00:32:35;99163.41;;;5.52;91.97
42003;BME280;27693;50.506;30.832;2023-12-20T00:33:38;99166.67;;;5.57;91.11
42003;BME280;27693;50.506;30.832;2023-12-20T00:34:42;99163.10;;;5.62;90.55
42003;BME280;27693;50.506;30.832;2023-12-20T00:35:45;99163.10;;;5.62;90.24
42003;BME280;27693;50.506;30.832;2023-12-20T00:36:48;99162.21;;;5.63;90.46
42003;BME280;27693;50.506;30.832;2023-12-20T00:37:51;99157.73;;;5.68;90.39
42003;BME280;27693;50.506;30.832;2023-12-20T00:38:53;99155.97;;;5.68;89.59
42003;BME280;27693;50.506;30.832;2023-12-20T00:39:58;99151.61;;;5.70;89.18
42003;BME280;27693;50.506;30.832;2023-12-20T00:41:04;99150.88;;;5.67;89.29
42003;BME280;27693;50.506;30.832;2023-12-20T00:42:06;99148.08;;;5.73;89.83
42003;BME280;27693;50.506;30.832;2023-12-20T00:43:10;99143.81;;;5.72;89.40
42003;BME280;27693;50.506;30.832;2023-12-20T00:44:12;99137.81;;;5.71;89.13
42003;BME280;27693;50.506;30.832;2023-12-20T00:45:15;99133.33;;;5.76;88.76
42003;BME280;27693;50.506;30.832;2023-12-20T00:46:18;99128.10;;;5.78;88.38
42003;BME280;27693;50.506;30.832;2023-12-20T00:47:21;99134.16;;;5.77;88.17
42003;BME280;27693;50.506;30.832;2023-12-20T00:48:24;99138.33;;;5.81;88.49
42003;BME280;27693;50.506;30.832;2023-12-20T00:49:26;99127.88;;;5.84;88.30
42003;BME280;27693;50.506;30.832;2023-12-20T00:50:29;99128.58;;;5.89;88.08
42003;BME280;27693;50.506;30.832;2023-12-20T00:51:32;99119.14;;;5.88;87.68
42003;BME280;27693;50.506;30.832;2023-12-20T00:52:36;99113.75;;;5.95;87.82
42003;BME280;27693;50.506;30.832;2023-12-20T00:53:38;99113.62;;;5.98;87.26
42003;BME280;27693;50.506;30.832;2023-12-20T00:54:40;99120.34;;;6.03;87.28
42003;BME280;27693;50.506;30.832;2023-12-20T00:55:47;99109.72;;;6.11;86.99
42003;BME280;27693;50.506;30.832;2023-12-20T00:56:49;99106.25;;;6.12;86.78
42003;BME280;27693;50.506;30.832;2023-12-20T00:57:52;99103.56;;;6.15;86.64
42003;BME280;27693;50.506;30.832;2023-12-20T00:58:56;99097.86;;;6.29;86.40
42003;BME280;27693;50.506;30.832;2023-12-20T00:59:59;99104.22;;;6.20;85.50
42003;BME280;27693;50.506;30.832;2023-12-20T01:01:02;99103.16;;;6.26;85.69
42003;BME280;27693;50.506;30.832;2023-12-20T01:02:05;99100.67;;;6.23;85.53
42003;BME280;27693;50.506;30.832;2023-12-20T01:03:07;99107.20;;;6.10;84.60
42003;BME280;27693;50.506;30.832;2023-12-20T01:04:10;99112.80;;;5.97;84.90
42003;BME280;27693;50.506;30.832;2023-12-20T01:05:13;99101.44;;;6.03;85.11
42003;BME280;27693;50.506;30.832;2023-12-20T01:06:19;99112.06;;;5.94;85.11
42003;BME280;27693;50.506;30.832;2023-12-20T01:07:21;99104.61;;;5.86;86.26
42003;BME280;27693;50.506;30.832;2023-12-20T01:08:23;99110.38;;;5.92;86.32
42003;BME280;27693;50.506;30.832;2023-12-20T01:09:26;99107.50;;;6.02;86.49
42003;BME280;27693;50.506;30.832;2023-12-20T01:10:29;99103.42;;;5.95;86.48
42003;BME280;27693;50.506;30.832;2023-12-20T01:11:33;99104.77;;;5.81;85.89
42003;BME280;27693;50.506;30.832;2023-12-20T01:12:36;99104.64;;;5.84;86.10
42003;BME280;27693;50.506;30.832;2023-12-20T01:13:40;99100.41;;;5.83;86.54
42003;BME280;27693;50.506;30.832;2023-12-20T01:14:42;99105.09;;;5.72;86.50
42003;BME280;27693;50.506;30.832;2023-12-20T01:15:45;99097.57;;;5.66;86.72
42003;BME280;27693;50.506;30.832;2023-12-20T01:16:50;99106.33;;;5.62;87.14
42003;BME280;27693;50.506;30.832;2023-12-20T01:17:52;99105.31;;;5.66;87.13
42003;BME280;27693;50.506;30.832;2023-12-20T01:18:55;99099.36;;;5.64;87.39
42003;BME280;27693;50.506;30.832;2023-12-20T01:19:58;99099.48;;;5.60;87.30
42003;BME280;27693;50.506;30.832;2023-12-20T01:21:06;99093.36;;;5.63;87.86
42003;BME280;27693;50.506;30.832;2023-12-20T01:22:06;99094.98;;;5.66;87.61
42003;BME280;27693;50.506;30.832;2023-12-20T01:23:08;99093.46;;;5.60;87.90
42003;BME280;27693;50.506;30.832;2023-12-20T01:24:15;99096.10;;;5.58;87.68
42003;BME280;27693;50.506;30.832;2023-12-20T01:25:18;99093.36;;;5.63;87.64
42003;BME280;27693;50.506;30.832;2023-12-20T01:26:21;99099.48;;;5.60;87.44
42003;BME280;27693;50.506;30.832;2023-12-20T01:27:24;99099.55;;;5.59;87.49
42003;BME280;27693;50.506;30.832;2023-12-20T01:28:28;99090.14;;;5.56;87.28
42003;BME280;27693;50.506;30.832;2023-12-20T01:29:30;99091.96;;;5.54;87.32
42003;BME280;27693;50.506;30.832;2023-12-20T01:30:34;99090.36;;;5.50;86.92
42003;BME280;27693;50.506;30.832;2023-12-20T01:31:38;99086.06;;;5.51;87.10
42003;BME280;27693;50.506;30.832;2023-12-20T01:32:40;99084.31;;;5.51;87.17
42003;BME280;27693;50.506;30.832;2023-12-20T01:33:43;99087.78;;;5.50;86.93
42003;BME280;27693;50.506;30.832;2023-12-20T01:34:45;99092.20;;;5.47;87.09
42003;BME280;27693;50.506;30.832;2023-12-20T01:35:47;99089.81;;;5.42;86.60
42003;BME280;27693;50.506;30.832;2023-12-20T01:36:50;99085.64;;;5.38;86.15
42003;BME280;27693;50.506;30.832;2023-12-20T01:37:53;99088.34;;;5.35;86.20
42003;BME280;27693;50.506;30.832;2023-12-20T01:38:57;99091.91;;;5.31;86.11
42003;BME280;27693;50.506;30.832;2023-12-20T01:39:59;99092.03;;;5.27;85.55
42003;BME280;27693;50.506;30.832;2023-12-20T01:41:02;99092.11;;;5.24;85.80
42003;BME280;27693;50.506;30.832;2023-12-20T01:42:05;99081.58;;;5.31;85.78
42003;BME280;27693;50.506;30.832;2023-12-20T01:43:08;99079.89;;;5.30;85.68
42003;BME280;27693;50.506;30.832;2023-12-20T01:44:11;99086.01;;;5.27;85.40
42003;BME280;27693;50.506;30.832;2023-12-20T01:45:13;99085.05;;;5.30;85.80
42003;BME280;27693;50.506;30.832;2023-12-20T01:46:17;99080.61;;;5.35;85.81
42003;BME280;27693;50.506;30.832;2023-12-20T01:47:21;99073.70;;;5.35;85.83
42003;BME280;27693;50.506;30.832;2023-12-20T01:48:25;99077.90;;;5.38;86.02
42003;BME280;27693;50.506;30.832;2023-12-20T01:49:28;99070.96;;;5.40;86.15
42003;BME280;27693;50.506;30.832;2023-12-20T01:50:31;99070.61;;;5.49;86.40
42003;BME280;27693;50.506;30.832;2023-12-20T01:51:34;99074.12;;;5.48;85.80
42003;BME280;27693;50.506;30.832;2023-12-20T01:52:38;99074.12;;;5.48;85.60
42003;BME280;27693;50.506;30.832;2023-12-20T01:53:43;99063.58;;;5.54;85.58
42003;BME280;27693;50.506;30.832;2023-12-20T01:54:47;99063.58;;;5.54;85.58
42003;BME280;27693;50.506;30.832;2023-12-20T01:55:54;99058.52;;;5.51;84.87
42003;BME280;27693;50.506;30.832;2023-12-20T01:57:02;99054.38;;;5.47;84.24
42003;BME280;27693;50.506;30.832;2023-12-20T01:58:09;99052.55;;;5.49;84.32
42003;BME280;27693;50.506;30.832;2023-12-20T01:59:12;99046.28;;;5.56;84.02
42003;BME280;27693;50.506;30.832;2023-12-20T02:00:18;99047.87;;;5.60;84.54
42003;BME280;27693;50.506;30.832;2023-12-20T02:01:20;99053.12;;;5.57;84.64
42003;BME280;27693;50.506;30.832;2023-12-20T02:02:24;99053.25;;;5.54;83.94
42003;BME280;27693;50.506;30.832;2023-12-20T02:03:29;99049.78;;;5.55;84.05
42003;BME280;27693;50.506;30.832;2023-12-20T02:04:33;99046.28;;;5.56;83.84
42003;BME280;27693;50.506;30.832;2023-12-20T02:05:37;99053.77;;;5.64;84.69
42003;BME280;27693;50.506;30.832;2023-12-20T02:06:42;99056.50;;;5.59;82.99
42003;BME280;27693;50.506;30.832;2023-12-20T02:07:46;99047.08;;;5.58;83.15
42003;BME280;27693;50.506;30.832;2023-12-20T02:08:50;99036.53;;;5.65;83.42
42003;BME280;27693;50.506;30.832;2023-12-20T02:09:53;99045.16;;;5.64;82.75
42003;BME280;27693;50.506;30.832;2023-12-20T02:10:59;99043.22;;;5.70;83.05
42003;BME280;27693;50.506;30.832;2023-12-20T02:12:02;99035.53;;;5.69;82.98
42003;BME280;27693;50.506;30.832;2023-12-20T02:13:05;99038.88;;;5.71;83.03
42003;BME280;27693;50.506;30.832;2023-12-20T02:14:08;99036.07;;;5.77;83.05
42003;BME280;27693;50.506;30.832;2023-12-20T02:15:10;99035.17;;;5.78;82.28
42003;BME280;27693;50.506;30.832;2023-12-20T02:16:13;99035.80;;;5.85;82.79
42003;BME280;27693;50.506;30.832;2023-12-20T02:17:16;99010.78;;;5.87;83.15
42003;BME280;27693;50.506;30.832;2023-12-20T02:18:18;99010.78;;;5.87;83.15
42003;BME280;27693;50.506;30.832;2023-12-20T02:19:21;99027.45;;;6.02;83.67
42003;BME280;27693;50.506;30.832;2023-12-20T02:20:25;99030.86;;;6.02;82.36
42003;BME280;27693;50.506;30.832;2023-12-20T02:21:34;99024.08;;;6.00;82.21
42003;BME280;27693;50.506;30.832;2023-12-20T02:22:39;99028.48;;;5.96;81.94
42003;BME280;27693;50.506;30.832;2023-12-20T02:23:41;99027.66;;;5.96;82.20
42003;BME280;27693;50.506;30.832;2023-12-20T02:24:44;99027.55;;;5.99;82.27
42003;BME280;27693;50.506;30.832;2023-12-20T02:25:46;99024.94;;;6.00;82.12
42003;BME280;27693;50.506;30.832;2023-12-20T02:26:48;99022.29;;;6.02;81.87
42003;BME280;27693;50.506;30.832;2023-12-20T02:27:52;99021.91;;;6.11;81.92
42003;BME280;27693;50.506;30.832;2023-12-20T02:28:54;99015.75;;;6.15;81.64
42003;BME280;27693;50.506;30.832;2023-12-20T02:29:57;99014.78;;;6.18;81.30
42003;BME280;27693;50.506;30.832;2023-12-20T02:31:00;99018.09;;;6.21;81.26
42003;BME280;27693;50.506;30.832;2023-12-20T02:32:03;99021.33;;;6.27;81.29
42003;BME280;27693;50.506;30.832;2023-12-20T02:33:08;99023.25;;;6.21;80.85
42003;BME280;27693;50.506;30.832;2023-12-20T02:34:11;99028.77;;;6.12;80.84
42003;BME280;27693;50.506;30.832;2023-12-20T02:35:14;99028.11;;;6.07;81.22
42003;BME280;27693;50.506;30.832;2023-12-20T02:36:17;99024.97;;;5.99;81.48
42003;BME280;27693;50.506;30.832;2023-12-20T02:37:19;99026.20;;;5.88;80.26
42003;BME280;27693;50.506;30.832;2023-12-20T02:38:22;99025.97;;;5.95;80.45
42003;BME280;27693;50.506;30.832;2023-12-20T02:39:24;99026.86;;;5.94;80.53
42003;BME280;27693;50.506;30.832;2023-12-20T02:40:27;99025.48;;;5.85;80.24
42003;BME280;27693;50.506;30.832;2023-12-20T02:41:30;99032.50;;;5.81;79.07
42003;BME280;27693;50.506;30.832;2023-12-20T02:42:32;99029.78;;;5.84;79.21
42003;BME280;27693;50.506;30.832;2023-12-20T02:43:35;99019.52;;;5.83;79.80
42003;BME280;27693;50.506;30.832;2023-12-20T02:44:37;99018.00;;;5.77;80.40
42003;BME280;27693;50.506;30.832;2023-12-20T02:45:39;99015.48;;;5.75;80.99
42003;BME280;27693;50.506;30.832;2023-12-20T02:46:42;99010.39;;;5.74;80.32
42003;BME280;27693;50.506;30.832;2023-12-20T02:47:45;99012.17;;;5.72;79.72
42003;BME280;27693;50.506;30.832;2023-12-20T02:48:48;99011.52;;;5.67;79.70
42003;BME280;27693;50.506;30.832;2023-12-20T02:49:51;99008.04;;;5.68;80.17
42003;BME280;27693;50.506;30.832;2023-12-20T02:50:57;99021.84;;;5.67;79.34
42003;BME280;27693;50.506;30.832;2023-12-20T02:51:59;99014.98;;;5.66;79.45
42003;BME280;27693;50.506;30.832;2023-12-20T02:53:02;99006.45;;;5.64;79.86
42003;BME280;27693;50.506;30.832;2023-12-20T02:54:04;99009.83;;;5.66;80.93
42003;BME280;27693;50.506;30.832;2023-12-20T02:55:07;99007.25;;;5.66;79.98
42003;BME280;27693;50.506;30.832;2023-12-20T02:56:10;98999.50;;;5.66;80.52
42003;BME280;27693;50.506;30.832;2023-12-20T02:57:14;99013.43;;;5.62;80.28
42003;BME280;27693;50.506;30.832;2023-12-20T02:58:16;99008.14;;;5.65;80.03
42003;BME280;27693;50.506;30.832;2023-12-20T02:59:20;99009.73;;;5.69;80.41
42003;BME280;27693;50.506;30.832;2023-12-20T03:00:24;99007.18;;;5.67;79.49
42003;BME280;27693;50.506;30.832;2023-12-20T03:01:27;99011.61;;;5.64;79.44
42003;BME280;27693;50.506;30.832;2023-12-20T03:02:29;99011.58;;;5.65;80.43
42003;BME280;27693;50.506;30.832;2023-12-20T03:03:32;99005.69;;;5.62;80.39
42003;BME280;27693;50.506;30.832;2023-12-20T03:04:34;98999.64;;;5.63;80.75
42003;BME280;27693;50.506;30.832;2023-12-20T03:05:37;99006.42;;;5.65;80.34
42003;BME280;27693;50.506;30.832;2023-12-20T03:06:39;99006.42;;;5.65;80.34
42003;BME280;27693;50.506;30.832;2023-12-20T03:07:42;99000.36;;;5.66;78.58
42003;BME280;27693;50.506;30.832;2023-12-20T03:08:45;98997.72;;;5.68;78.83
42003;BME280;27693;50.506;30.832;2023-12-20T03:09:48;98989.97;;;5.68;77.57
42003;BME280;27693;50.506;30.832;2023-12-20T03:10:52;98999.27;;;5.72;76.96
42003;BME280;27693;50.506;30.832;2023-12-20T03:11:55;98991.53;;;5.72;76.65
42003;BME280;27693;50.506;30.832;2023-12-20T03:12:58;98992.42;;;5.71;77.04
42003;BME280;27693;50.506;30.832;2023-12-20T03:14:00;98994.11;;;5.72;76.88
42003;BME280;27693;50.506;30.832;2023-12-20T03:15:03;98981.20;;;5.72;76.64
42003;BME280;27693;50.506;30.832;2023-12-20T03:16:10;98981.20;;;5.72;76.64
42003;BME280;27693;50.506;30.832;2023-12-20T03:17:12;98985.23;;;5.79;75.68
42003;BME280;27693;50.506;30.832;2023-12-20T03:18:14;98988.68;;;5.80;75.88
42003;BME280;27693;50.506;30.832;2023-12-20T03:19:18;98989.41;;;5.83;75.91
42003;BME280;27693;50.506;30.832;2023-12-20T03:20:23;98994.44;;;5.86;75.87
42003;BME280;27693;50.506;30.832;2023-12-20T03:21:25;98989.92;;;5.91;75.42
42003;BME280;27693;50.506;30.832;2023-12-20T03:22:27;98978.70;;;5.92;74.08
42003;BME280;27693;50.506;30.832;2023-12-20T03:23:30;98995.88;;;5.94;74.24
42003;BME280;27693;50.506;30.832;2023-12-20T03:24:34;98998.36;;;5.97;74.38
42003;BME280;27693;50.506;30.832;2023-12-20T03:25:36;98992.20;;;6.01;74.57
42003;BME280;27693;50.506;30.832;2023-12-20T03:26:39;98995.67;;;6.00;73.12
42003;BME280;27693;50.506;30.832;2023-12-20T03:27:42;98994.78;;;6.01;73.33
42003;BME280;27693;50.506;30.832;2023-12-20T03:28:45;98985.38;;;5.98;73.41
42003;BME280;27693;50.506;30.832;2023-12-20T03:29:47;98987.11;;;5.98;73.54
42003;BME280;27693;50.506;30.832;2023-12-20T03:30:49;98991.41;;;5.99;73.27
42003;BME280;27693;50.506;30.832;2023-12-20T03:31:52;98994.85;;;5.98;72.17
42003;BME280;27693;50.506;30.832;2023-12-20T03:32:55;98982.80;;;5.98;72.49
42003;BME280;27693;50.506;30.832;2023-12-20T03:33:58;98977.81;;;5.94;73.67
42003;BME280;27693;50.506;30.832;2023-12-20T03:35:00;98981.88;;;6.01;73.87
42003;BME280;27693;50.506;30.832;2023-12-20T03:36:04;98977.50;;;6.03;71.92
42003;BME280;27693;50.506;30.832;2023-12-20T03:37:07;98991.16;;;6.05;71.95
42003;BME280;27693;50.506;30.832;2023-12-20T03:38:09;98985.89;;;6.08;72.97
42003;BME280;27693;50.506;30.832;2023-12-20T03:39:12;98983.38;;;6.06;71.74
42003;BME280;27693;50.506;30.832;2023-12-20T03:40:17;98977.36;;;6.06;71.07
42003;BME280;27693;50.506;30.832;2023-12-20T03:41:19;98979.11;;;6.05;71.21
42003;BME280;27693;50.506;30.832;2023-12-20T03:42:22;98985.89;;;6.08;71.19
42003;BME280;27693;50.506;30.832;2023-12-20T03:43:25;98992.75;;;6.09;70.96
42003;BME280;27693;50.506;30.832;2023-12-20T03:44:27;98979.87;;;6.07;71.51
42003;BME280;27693;50.506;30.832;2023-12-20T03:45:32;98988.30;;;6.13;72.24
42003;BME280;27693;50.506;30.832;2023-12-20T03:46:34;98986.86;;;6.05;71.54
42003;BME280;27693;50.506;30.832;2023-12-20T03:47:36;98985.38;;;5.98;71.69
42003;BME280;27693;50.506;30.832;2023-12-20T03:48:39;98981.11;;;5.97;71.54
42003;BME280;27693;50.506;30.832;2023-12-20T03:49:41;98994.13;;;5.94;71.24
42003;BME280;27693;50.506;30.832;2023-12-20T03:50:43;98983.70;;;5.97;71.95
42003;BME280;27693;50.506;30.832;2023-12-20T03:51:46;98990.44;;;6.01;71.42
42003;BME280;27693;50.506;30.832;2023-12-20T03:52:49;98992.98;;;6.03;70.70
42003;BME280;27693;50.506;30.832;2023-12-20T03:53:53;98988.79;;;6.00;71.27
42003;BME280;27693;50.506;30.832;2023-12-20T03:54:56;98989.83;;;5.95;70.84
42003;BME280;27693;50.506;30.832;2023-12-20T03:55:59;98989.83;;;5.95;70.84
42003;BME280;27693;50.506;30.832;2023-12-20T03:57:01;98991.41;;;5.99;70.75
42003;BME280;27693;50.506;30.832;2023-12-20T03:58:04;98991.41;;;5.99;70.84
42003;BME280;27693;50.506;30.832;2023-12-20T03:59:07;98998.16;;;6.03;70.64
42003;BME280;27693;50.506;30.832;2023-12-20T04:00:11;98999.70;;;6.07;70.18
42003;BME280;27693;50.506;30.832;2023-12-20T04:01:13;98991.16;;;6.05;70.18
42003;BME280;27693;50.506;30.832;2023-12-20T04:02:15;98992.09;;;6.04;69.74
42003;BME280;27693;50.506;30.832;2023-12-20T04:03:20;98989.62;;;6.01;70.03
42003;BME280;27693;50.506;30.832;2023-12-20T04:04:22;98990.44;;;6.01;69.86
42003;BME280;27693;50.506;30.832;2023-12-20T04:05:24;98991.30;;;6.02;70.72
42003;BME280;27693;50.506;30.832;2023-12-20T04:06:27;98989.52;;;6.04;71.57
42003;BME280;27693;50.506;30.832;2023-12-20T04:07:30;98997.02;;;6.10;72.58
42003;BME280;27693;50.506;30.832;2023-12-20T04:08:32;99000.53;;;6.07;72.19
42003;BME280;27693;50.506;30.832;2023-12-20T04:09:35;98991.16;;;6.05;72.13
42003;BME280;27693;50.506;30.832;2023-12-20T04:10:37;98996.57;;;5.99;72.72
42003;BME280;27693;50.506;30.832;2023-12-20T04:11:40;98994.09;;;5.96;73.33
42003;BME280;27693;50.506;30.832;2023-12-20T04:12:42;99003.86;;;5.87;73.62
42003;BME280;27693;50.506;30.832;2023-12-20T04:13:44;98994.50;;;5.85;74.46
42003;BME280;27693;50.506;30.832;2023-12-20T04:14:47;99007.48;;;5.83;73.76
42003;BME280;27693;50.506;30.832;2023-12-20T04:15:49;98996.42;;;5.80;73.83
42003;BME280;27693;50.506;30.832;2023-12-20T04:16:53;98998.94;;;5.81;74.93
42003;BME280;27693;50.506;30.832;2023-12-20T04:17:56;98995.46;;;5.82;74.13
42003;BME280;27693;50.506;30.832;2023-12-20T04:18:58;99000.73;;;5.79;74.89
42003;BME280;27693;50.506;30.832;2023-12-20T04:20:01;98995.86;;;5.71;75.30
42003;BME280;27693;50.506;30.832;2023-12-20T04:21:05;98994.24;;;5.69;76.07
42003;BME280;27693;50.506;30.832;2023-12-20T04:22:07;99000.13;;;5.72;76.72
42003;BME280;27693;50.506;30.832;2023-12-20T04:23:11;98995.00;;;5.71;76.74
42003;BME280;27693;50.506;30.832;2023-12-20T04:24:13;98999.50;;;5.66;76.02
42003;BME280;27693;50.506;30.832;2023-12-20T04:25:16;99011.52;;;5.67;76.75
42003;BME280;27693;50.506;30.832;2023-12-20T04:26:19;99000.96;;;5.73;76.83
42003;BME280;27693;50.506;30.832;2023-12-20T04:27:21;99006.12;;;5.73;77.10
42003;BME280;27693;50.506;30.832;2023-12-20T04:28:23;99004.44;;;5.72;77.57
42003;BME280;27693;50.506;30.832;2023-12-20T04:29:27;99000.96;;;5.73;77.85
42003;BME280;27693;50.506;30.832;2023-12-20T04:30:30;99006.02;;;5.76;78.67
42003;BME280;27693;50.506;30.832;2023-12-20T04:31:33;99000.89;;;5.74;78.92
42003;BME280;27693;50.506;30.832;2023-12-20T04:32:37;99003.70;;;5.68;77.99
42003;BME280;27693;50.506;30.832;2023-12-20T04:33:39;99004.83;;;5.61;77.46
42003;BME280;27693;50.506;30.832;2023-12-20T04:34:42;99005.86;;;5.57;76.61
42003;BME280;27693;50.506;30.832;2023-12-20T04:35:48;99007.41;;;5.61;76.87
42003;BME280;27693;50.506;30.832;2023-12-20T04:36:51;99005.86;;;5.57;76.10
42003;BME280;27693;50.506;30.832;2023-12-20T04:37:56;99007.41;;;5.61;76.16
42003;BME280;27693;50.506;30.832;2023-12-20T04:38:58;99013.66;;;5.55;75.82
42003;BME280;27693;50.506;30.832;2023-12-20T04:40:02;99005.13;;;5.53;75.93
42003;BME280;27693;50.506;30.832;2023-12-20T04:41:05;99003.37;;;5.54;75.45
42003;BME280;27693;50.506;30.832;2023-12-20T04:42:08;99006.11;;;5.49;75.86
42003;BME280;27693;50.506;30.832;2023-12-20T04:43:10;99009.42;;;5.53;76.04
42003;BME280;27693;50.506;30.832;2023-12-20T04:44:13;99009.33;;;5.56;76.08
42003;BME280;27693;50.506;30.832;2023-12-20T04:45:16;99010.38;;;5.50;75.78
42003;BME280;27693;50.506;30.832;2023-12-20T04:46:21;99011.41;;;5.46;76.29
42003;BME280;27693;50.506;30.832;2023-12-20T04:47:23;99009.94;;;5.39;75.65
42003;BME280;27693;50.506;30.832;2023-12-20T04:48:25;99015.03;;;5.40;75.43
42003;BME280;27693;50.506;30.832;2023-12-20T04:49:29;99006.34;;;5.43;75.39
42003;BME280;27693;50.506;30.832;2023-12-20T04:50:33;99017.10;;;5.31;75.39
42003;BME280;27693;50.506;30.832;2023-12-20T04:51:36;99015.41;;;5.30;75.72
42003;BME280;27693;50.506;30.832;2023-12-20T04:52:40;99010.95;;;5.35;75.81
42003;BME280;27693;50.506;30.832;2023-12-20T04:53:43;99009.05;;;5.40;75.69
42003;BME280;27693;50.506;30.832;2023-12-20T04:54:46;99009.05;;;5.40;75.27
42003;BME280;27693;50.506;30.832;2023-12-20T04:55:49;99003.89;;;5.40;75.25
42003;BME280;27693;50.506;30.832;2023-12-20T04:56:51;99013.31;;;5.41;75.48
42003;BME280;27693;50.506;30.832;2023-12-20T04:57:54;99009.84;;;5.42;75.71
42003;BME280;27693;50.506;30.832;2023-12-20T04:58:56;99006.11;;;5.49;75.92
42003;BME280;27693;50.506;30.832;2023-12-20T04:59:59;99000.79;;;5.54;76.35
42003;BME280;27693;50.506;30.832;2023-12-20T05:01:01;99005.00;;;5.56;76.52
42003;BME280;27693;50.506;30.832;2023-12-20T05:02:04;98999.97;;;5.53;76.56
42003;BME280;27693;50.506;30.832;2023-12-20T05:03:06;99001.52;;;5.57;76.60
42003;BME280;27693;50.506;30.832;2023-12-20T05:04:09;99001.52;;;5.57;76.35
42003;BME280;27693;50.506;30.832;2023-12-20T05:05:12;98996.13;;;5.64;76.66
42003;BME280;27693;50.506;30.832;2023-12-20T05:06:18;98992.06;;;5.58;76.70
42003;BME280;27693;50.506;30.832;2023-12-20T05:07:21;98995.86;;;5.48;76.81
42003;BME280;27693;50.506;30.832;2023-12-20T05:08:23;98997.05;;;5.39;76.06
42003;BME280;27693;50.506;30.832;2023-12-20T05:09:26;98994.46;;;5.39;76.50
42003;BME280;27693;50.506;30.832;2023-12-20T05:10:29;98991.66;;;5.45;76.88
42003;BME280;27693;50.506;30.832;2023-12-20T05:11:31;98996.09;;;5.41;77.14
42003;BME280;27693;50.506;30.832;2023-12-20T05:12:34;98995.13;;;5.44;76.97
42003;BME280;27693;50.506;30.832;2023-12-20T05:13:37;98997.14;;;5.36;75.57
42003;BME280;27693;50.506;30.832;2023-12-20T05:14:42;98998.06;;;5.35;75.24
42003;BME280;27693;50.506;30.832;2023-12-20T05:15:45;98992.91;;;5.35;75.89
42003;BME280;27693;50.506;30.832;2023-12-20T05:16:51;98994.36;;;5.42;75.83
42003;BME280;27693;50.506;30.832;2023-12-20T05:17:54;99001.87;;;5.48;76.42
42003;BME280;27693;50.506;30.832;2023-12-20T05:18:57;99005.45;;;5.44;76.37
42003;BME280;27693;50.506;30.832;2023-12-20T05:20:00;99007.59;;;5.33;77.73
42003;BME280;27693;50.506;30.832;2023-12-20T05:21:03;99006.72;;;5.32;78.58
42003;BME280;27693;50.506;30.832;2023-12-20T05:22:06;99010.32;;;5.28;79.53
42003;BME280;27693;50.506;30.832;2023-12-20T05:23:08;99008.63;;;5.27;79.80
42003;BME280;27693;50.506;30.832;2023-12-20T05:24:10;98998.06;;;5.35;84.04
42003;BME280;27693;50.506;30.832;2023-12-20T05:25:13;98990.77;;;5.46;87.90
42003;BME280;27693;50.506;30.832;2023-12-20T05:26:17;98988.84;;;5.51;88.55
42003;BME280;27693;50.506;30.832;2023-12-20T05:27:19;98997.67;;;5.46;85.24
42003;BME280;27693;50.506;30.832;2023-12-20T05:28:21;98987.39;;;5.44;82.29
42003;BME280;27693;50.506;30.832;2023-12-20T05:29:24;98994.08;;;5.50;83.31
42003;BME280;27693;50.506;30.832;2023-12-20T05:30:28;98987.89;;;5.54;86.07
42003;BME280;27693;50.506;30.832;2023-12-20T05:31:31;98995.20;;;5.66;85.94
42003;BME280;27693;50.506;30.832;2023-12-20T05:32:34;98993.84;;;5.80;91.74
42003;BME280;27693;50.506;30.832;2023-12-20T05:33:39;98984.41;;;6.25;100.00